sensor_id;sensor_type;location;lat;lon;timestamp;P1;durP1;ratioP1;P2;durP2;ratioP2
76833;SDS011;65793;42.678;23.332;2022-12-29T00:00:50;50.70;;;30.45;;
76833;SDS011;65793;42.678;23.332;2022-12-29T00:03:52;40.85;;;29.23;;
76833;SDS011;65793;42.678;23.332;2022-12-29T00:06:55;39.85;;;25.98;;
76833;SDS011;65793;42.678;23.332;2022-12-29T00:09:59;42.42;;;27.13;;
76833;SDS011;65793;42.678;23.332;2022-12-29T00:13:01;40.80;;;28.15;;
76833;SDS011;65793;42.678;23.332;2022-12-29T00:16:21;39.13;;;27.85;;
76833;SDS011;65793;42.678;23.332;2022-12-29T00:19:23;44.70;;;28.25;;
76833;SDS011;65793;42.678;23.332;2022-12-29T00:22:44;44.10;;;28.95;;
76833;SDS011;65793;42.678;23.332;2022-12-29T00:26:03;38.90;;;27.70;;
76833;SDS011;65793;42.678;23.332;2022-12-29T00:29:28;38.60;;;28.38;;
76833;SDS011;65793;42.678;23.332;2022-12-29T00:32:47;45.55;;;29.95;;
76833;SDS011;65793;42.678;23.332;2022-12-29T00:36:07;44.60;;;30.23;;
76833;SDS011;65793;42.678;23.332;2022-12-29T00:39:13;44.60;;;31.08;;
76833;SDS011;65793;42.678;23.332;2022-12-29T00:42:37;47.65;;;30.65;;
76833;SDS011;65793;42.678;23.332;2022-12-29T00:45:57;47.42;;;29.08;;
76833;SDS011;65793;42.678;23.332;2022-12-29T00:48:59;44.22;;;30.23;;
76833;SDS011;65793;42.678;23.332;2022-12-29T00:52:19;38.45;;;28.08;;
76833;SDS011;65793;42.678;23.332;2022-12-29T00:55:22;43.63;;;26.20;;
76833;SDS011;65793;42.678;23.332;2022-12-29T00:58:26;34.40;;;24.90;;
76833;SDS011;65793;42.678;23.332;2022-12-29T01:01:29;39.42;;;24.85;;
76833;SDS011;65793;42.678;23.332;2022-12-29T01:04:31;33.60;;;23.98;;
76833;SDS011;65793;42.678;23.332;2022-12-29T01:07:33;34.80;;;22.00;;
76833;SDS011;65793;42.678;23.332;2022-12-29T01:10:37;31.27;;;21.63;;
76833;SDS011;65793;42.678;23.332;2022-12-29T01:13:38;29.70;;;21.70;;
76833;SDS011;65793;42.678;23.332;2022-12-29T01:16:41;27.77;;;20.98;;
76833;SDS011;65793;42.678;23.332;2022-12-29T01:19:43;28.83;;;18.48;;
76833;SDS011;65793;42.678;23.332;2022-12-29T01:22:45;28.67;;;21.08;;
76833;SDS011;65793;42.678;23.332;2022-12-29T01:25:49;21.85;;;17.38;;
76833;SDS011;65793;42.678;23.332;2022-12-29T01:28:51;27.98;;;19.30;;
76833;SDS011;65793;42.678;23.332;2022-12-29T01:31:53;26.20;;;17.52;;
76833;SDS011;65793;42.678;23.332;2022-12-29T01:34:56;28.53;;;20.43;;
76833;SDS011;65793;42.678;23.332;2022-12-29T01:37:58;29.17;;;19.08;;
76833;SDS011;65793;42.678;23.332;2022-12-29T01:41:02;28.08;;;19.35;;
76833;SDS011;65793;42.678;23.332;2022-12-29T01:47:46;25.48;;;18.60;;
76833;SDS011;65793;42.678;23.332;2022-12-29T01:50:52;29.70;;;19.27;;
76833;SDS011;65793;42.678;23.332;2022-12-29T01:53:55;26.50;;;18.77;;
76833;SDS011;65793;42.678;23.332;2022-12-29T01:57:03;24.08;;;16.58;;
76833;SDS011;65793;42.678;23.332;2022-12-29T02:00:10;24.58;;;17.50;;
76833;SDS011;65793;42.678;23.332;2022-12-29T02:03:15;24.00;;;17.67;;
76833;SDS011;65793;42.678;23.332;2022-12-29T02:06:21;21.00;;;15.93;;
76833;SDS011;65793;42.678;23.332;2022-12-29T02:09:26;20.15;;;15.98;;
76833;SDS011;65793;42.678;23.332;2022-12-29T02:12:29;22.08;;;17.17;;
76833;SDS011;65793;42.678;23.332;2022-12-29T02:15:34;27.70;;;18.10;;
76833;SDS011;65793;42.678;23.332;2022-12-29T02:18:45;23.17;;;17.13;;
76833;SDS011;65793;42.678;23.332;2022-12-29T02:22:00;19.85;;;14.80;;
76833;SDS011;65793;42.678;23.332;2022-12-29T02:25:19;21.77;;;16.45;;
76833;SDS011;65793;42.678;23.332;2022-12-29T02:28:49;24.13;;;16.17;;
76833;SDS011;65793;42.678;23.332;2022-12-29T02:32:07;22.55;;;16.08;;
76833;SDS011;65793;42.678;23.332;2022-12-29T02:35:20;20.83;;;15.45;;
76833;SDS011;65793;42.678;23.332;2022-12-29T02:38:32;26.58;;;17.48;;
76833;SDS011;65793;42.678;23.332;2022-12-29T02:41:56;19.92;;;15.07;;
76833;SDS011;65793;42.678;23.332;2022-12-29T02:45:06;22.58;;;15.48;;
76833;SDS011;65793;42.678;23.332;2022-12-29T02:48:16;24.13;;;16.27;;
76833;SDS011;65793;42.678;23.332;2022-12-29T02:51:25;19.02;;;14.65;;
76833;SDS011;65793;42.678;23.332;2022-12-29T02:54:32;23.55;;;16.90;;
76833;SDS011;65793;42.678;23.332;2022-12-29T02:57:44;21.80;;;16.45;;
76833;SDS011;65793;42.678;23.332;2022-12-29T03:00:49;21.30;;;13.95;;
76833;SDS011;65793;42.678;23.332;2022-12-29T03:07:33;21.65;;;15.48;;
76833;SDS011;65793;42.678;23.332;2022-12-29T03:10:45;21.92;;;15.20;;
76833;SDS011;65793;42.678;23.332;2022-12-29T03:13:56;21.27;;;15.93;;
76833;SDS011;65793;42.678;23.332;2022-12-29T03:17:23;25.85;;;16.27;;
76833;SDS011;65793;42.678;23.332;2022-12-29T03:20:31;19.80;;;15.90;;
76833;SDS011;65793;42.678;23.332;2022-12-29T03:23:40;25.77;;;17.70;;
76833;SDS011;65793;42.678;23.332;2022-12-29T03:26:45;27.23;;;17.98;;
76833;SDS011;65793;42.678;23.332;2022-12-29T03:29:50;23.95;;;16.88;;
76833;SDS011;65793;42.678;23.332;2022-12-29T03:32:57;20.95;;;15.90;;
76833;SDS011;65793;42.678;23.332;2022-12-29T03:36:06;22.98;;;17.33;;
76833;SDS011;65793;42.678;23.332;2022-12-29T03:39:11;23.20;;;16.77;;
76833;SDS011;65793;42.678;23.332;2022-12-29T03:42:16;27.05;;;18.70;;
76833;SDS011;65793;42.678;23.332;2022-12-29T03:45:21;23.60;;;18.50;;
76833;SDS011;65793;42.678;23.332;2022-12-29T03:48:23;24.88;;;17.77;;
76833;SDS011;65793;42.678;23.332;2022-12-29T03:51:30;26.55;;;19.83;;
76833;SDS011;65793;42.678;23.332;2022-12-29T03:54:32;26.38;;;18.63;;
76833;SDS011;65793;42.678;23.332;2022-12-29T03:57:34;29.02;;;19.33;;
76833;SDS011;65793;42.678;23.332;2022-12-29T04:00:41;24.95;;;16.33;;
76833;SDS011;65793;42.678;23.332;2022-12-29T04:03:43;24.08;;;16.52;;
76833;SDS011;65793;42.678;23.332;2022-12-29T04:06:47;26.48;;;18.17;;
76833;SDS011;65793;42.678;23.332;2022-12-29T04:09:49;24.17;;;16.85;;
76833;SDS011;65793;42.678;23.332;2022-12-29T04:12:55;28.00;;;18.23;;
76833;SDS011;65793;42.678;23.332;2022-12-29T04:15:58;26.73;;;17.60;;
76833;SDS011;65793;42.678;23.332;2022-12-29T04:19:01;28.77;;;19.40;;
76833;SDS011;65793;42.678;23.332;2022-12-29T04:22:05;25.80;;;17.98;;
76833;SDS011;65793;42.678;23.332;2022-12-29T04:25:08;23.45;;;17.63;;
76833;SDS011;65793;42.678;23.332;2022-12-29T04:28:10;26.95;;;18.17;;
76833;SDS011;65793;42.678;23.332;2022-12-29T04:31:22;29.13;;;18.70;;
76833;SDS011;65793;42.678;23.332;2022-12-29T04:34:24;28.90;;;17.98;;
76833;SDS011;65793;42.678;23.332;2022-12-29T04:37:29;33.25;;;18.75;;
76833;SDS011;65793;42.678;23.332;2022-12-29T04:40:31;28.65;;;18.92;;
76833;SDS011;65793;42.678;23.332;2022-12-29T04:43:33;27.50;;;17.35;;
76833;SDS011;65793;42.678;23.332;2022-12-29T04:47:02;27.60;;;16.33;;
76833;SDS011;65793;42.678;23.332;2022-12-29T04:50:15;26.92;;;17.30;;
76833;SDS011;65793;42.678;23.332;2022-12-29T04:53:26;34.58;;;18.48;;
76833;SDS011;65793;42.678;23.332;2022-12-29T04:56:28;28.45;;;18.20;;
76833;SDS011;65793;42.678;23.332;2022-12-29T04:59:31;27.17;;;19.33;;
76833;SDS011;65793;42.678;23.332;2022-12-29T05:02:34;26.27;;;19.80;;
76833;SDS011;65793;42.678;23.332;2022-12-29T05:05:36;38.40;;;20.25;;
76833;SDS011;65793;42.678;23.332;2022-12-29T05:08:40;26.80;;;19.15;;
76833;SDS011;65793;42.678;23.332;2022-12-29T05:11:42;27.83;;;18.85;;
76833;SDS011;65793;42.678;23.332;2022-12-29T05:14:44;31.08;;;19.90;;
76833;SDS011;65793;42.678;23.332;2022-12-29T05:21:17;33.35;;;21.58;;
76833;SDS011;65793;42.678;23.332;2022-12-29T05:24:21;29.02;;;17.33;;
76833;SDS011;65793;42.678;23.332;2022-12-29T05:27:25;32.13;;;20.85;;
76833;SDS011;65793;42.678;23.332;2022-12-29T05:30:53;33.00;;;21.23;;
76833;SDS011;65793;42.678;23.332;2022-12-29T05:33:55;26.65;;;17.63;;
76833;SDS011;65793;42.678;23.332;2022-12-29T05:36:58;24.30;;;17.67;;
76833;SDS011;65793;42.678;23.332;2022-12-29T05:40:01;30.60;;;19.92;;
76833;SDS011;65793;42.678;23.332;2022-12-29T05:43:04;27.42;;;18.92;;
76833;SDS011;65793;42.678;23.332;2022-12-29T05:46:14;32.85;;;23.00;;
76833;SDS011;65793;42.678;23.332;2022-12-29T05:49:21;26.67;;;17.52;;
76833;SDS011;65793;42.678;23.332;2022-12-29T05:52:42;30.52;;;20.52;;
76833;SDS011;65793;42.678;23.332;2022-12-29T05:55:47;27.48;;;19.20;;
76833;SDS011;65793;42.678;23.332;2022-12-29T05:58:50;28.60;;;18.52;;
76833;SDS011;65793;42.678;23.332;2022-12-29T06:01:54;31.42;;;19.88;;
76833;SDS011;65793;42.678;23.332;2022-12-29T06:04:56;30.17;;;20.70;;
76833;SDS011;65793;42.678;23.332;2022-12-29T06:07:59;27.80;;;19.77;;
76833;SDS011;65793;42.678;23.332;2022-12-29T06:11:03;29.75;;;17.73;;
76833;SDS011;65793;42.678;23.332;2022-12-29T06:14:06;25.38;;;19.15;;
76833;SDS011;65793;42.678;23.332;2022-12-29T06:17:08;28.73;;;19.65;;
76833;SDS011;65793;42.678;23.332;2022-12-29T06:20:11;35.23;;;22.13;;
76833;SDS011;65793;42.678;23.332;2022-12-29T06:23:14;30.83;;;20.80;;
76833;SDS011;65793;42.678;23.332;2022-12-29T06:26:18;29.48;;;19.38;;
76833;SDS011;65793;42.678;23.332;2022-12-29T06:29:22;30.98;;;21.15;;
76833;SDS011;65793;42.678;23.332;2022-12-29T06:32:24;34.90;;;23.52;;
76833;SDS011;65793;42.678;23.332;2022-12-29T06:35:29;33.30;;;22.50;;
76833;SDS011;65793;42.678;23.332;2022-12-29T06:38:33;32.67;;;23.17;;
76833;SDS011;65793;42.678;23.332;2022-12-29T06:41:37;35.05;;;24.75;;
76833;SDS011;65793;42.678;23.332;2022-12-29T06:44:56;35.80;;;23.48;;
76833;SDS011;65793;42.678;23.332;2022-12-29T06:48:01;36.50;;;25.63;;
76833;SDS011;65793;42.678;23.332;2022-12-29T06:51:03;39.42;;;27.08;;
76833;SDS011;65793;42.678;23.332;2022-12-29T06:54:05;39.42;;;26.05;;
76833;SDS011;65793;42.678;23.332;2022-12-29T06:57:09;31.83;;;23.77;;
76833;SDS011;65793;42.678;23.332;2022-12-29T07:00:11;34.22;;;23.63;;
76833;SDS011;65793;42.678;23.332;2022-12-29T07:03:15;34.50;;;24.95;;
76833;SDS011;65793;42.678;23.332;2022-12-29T07:06:17;32.35;;;23.73;;
76833;SDS011;65793;42.678;23.332;2022-12-29T07:09:19;26.52;;;18.98;;
76833;SDS011;65793;42.678;23.332;2022-12-29T07:12:23;30.35;;;20.35;;
76833;SDS011;65793;42.678;23.332;2022-12-29T07:15:27;26.88;;;17.00;;
76833;SDS011;65793;42.678;23.332;2022-12-29T07:18:29;28.15;;;19.08;;
76833;SDS011;65793;42.678;23.332;2022-12-29T07:21:32;24.08;;;16.23;;
76833;SDS011;65793;42.678;23.332;2022-12-29T07:24:34;26.85;;;17.63;;
76833;SDS011;65793;42.678;23.332;2022-12-29T07:27:38;27.20;;;16.10;;
76833;SDS011;65793;42.678;23.332;2022-12-29T07:30:40;20.45;;;16.50;;
76833;SDS011;65793;42.678;23.332;2022-12-29T07:33:42;32.80;;;19.92;;
76833;SDS011;65793;42.678;23.332;2022-12-29T07:36:45;24.48;;;18.10;;
76833;SDS011;65793;42.678;23.332;2022-12-29T07:39:47;29.55;;;21.23;;
76833;SDS011;65793;42.678;23.332;2022-12-29T07:42:51;29.73;;;20.50;;
76833;SDS011;65793;42.678;23.332;2022-12-29T07:51:19;27.55;;;18.85;;
76833;SDS011;65793;42.678;23.332;2022-12-29T07:56:05;28.63;;;18.80;;
76833;SDS011;65793;42.678;23.332;2022-12-29T07:59:44;27.35;;;20.77;;
76833;SDS011;65793;42.678;23.332;2022-12-29T08:03:36;30.50;;;21.45;;
76833;SDS011;65793;42.678;23.332;2022-12-29T08:06:59;27.10;;;21.98;;
76833;SDS011;65793;42.678;23.332;2022-12-29T08:10:09;24.25;;;18.38;;
76833;SDS011;65793;42.678;23.332;2022-12-29T08:13:11;25.90;;;20.15;;
76833;SDS011;65793;42.678;23.332;2022-12-29T08:16:18;26.27;;;19.45;;
76833;SDS011;65793;42.678;23.332;2022-12-29T08:22:42;27.75;;;23.02;;
76833;SDS011;65793;42.678;23.332;2022-12-29T08:25:45;24.20;;;19.30;;
76833;SDS011;65793;42.678;23.332;2022-12-29T08:29:00;26.48;;;19.77;;
76833;SDS011;65793;42.678;23.332;2022-12-29T08:32:08;26.80;;;21.25;;
76833;SDS011;65793;42.678;23.332;2022-12-29T08:38:50;24.92;;;19.02;;
76833;SDS011;65793;42.678;23.332;2022-12-29T08:42:01;23.98;;;19.90;;
76833;SDS011;65793;42.678;23.332;2022-12-29T08:45:33;28.77;;;20.67;;
76833;SDS011;65793;42.678;23.332;2022-12-29T08:48:47;25.48;;;19.75;;
76833;SDS011;65793;42.678;23.332;2022-12-29T08:55:02;21.65;;;18.77;;
76833;SDS011;65793;42.678;23.332;2022-12-29T08:58:06;27.10;;;21.45;;
76833;SDS011;65793;42.678;23.332;2022-12-29T09:01:15;31.85;;;23.52;;
76833;SDS011;65793;42.678;23.332;2022-12-29T09:04:24;27.48;;;22.65;;
76833;SDS011;65793;42.678;23.332;2022-12-29T09:07:29;28.05;;;21.88;;
76833;SDS011;65793;42.678;23.332;2022-12-29T09:10:32;31.10;;;23.58;;
76833;SDS011;65793;42.678;23.332;2022-12-29T09:13:52;28.33;;;20.50;;
76833;SDS011;65793;42.678;23.332;2022-12-29T09:17:00;23.58;;;19.90;;
76833;SDS011;65793;42.678;23.332;2022-12-29T09:20:25;32.78;;;23.20;;
76833;SDS011;65793;42.678;23.332;2022-12-29T09:23:35;29.88;;;23.35;;
76833;SDS011;65793;42.678;23.332;2022-12-29T09:26:42;31.00;;;24.45;;
76833;SDS011;65793;42.678;23.332;2022-12-29T09:29:54;31.25;;;22.95;;
76833;SDS011;65793;42.678;23.332;2022-12-29T09:33:31;27.55;;;22.05;;
76833;SDS011;65793;42.678;23.332;2022-12-29T09:36:39;31.67;;;22.30;;
76833;SDS011;65793;42.678;23.332;2022-12-29T09:39:48;34.00;;;24.15;;
76833;SDS011;65793;42.678;23.332;2022-12-29T09:43:18;31.95;;;22.92;;
76833;SDS011;65793;42.678;23.332;2022-12-29T09:47:04;30.90;;;23.67;;
76833;SDS011;65793;42.678;23.332;2022-12-29T09:50:14;32.28;;;24.67;;
76833;SDS011;65793;42.678;23.332;2022-12-29T09:53:27;34.72;;;22.13;;
76833;SDS011;65793;42.678;23.332;2022-12-29T09:56:34;31.00;;;22.25;;
76833;SDS011;65793;42.678;23.332;2022-12-29T09:59:38;30.95;;;22.45;;
76833;SDS011;65793;42.678;23.332;2022-12-29T10:02:44;37.80;;;23.23;;
76833;SDS011;65793;42.678;23.332;2022-12-29T10:05:52;29.65;;;22.08;;
76833;SDS011;65793;42.678;23.332;2022-12-29T10:09:02;27.88;;;21.85;;
76833;SDS011;65793;42.678;23.332;2022-12-29T10:12:15;26.42;;;21.73;;
76833;SDS011;65793;42.678;23.332;2022-12-29T10:15:33;32.53;;;23.08;;
76833;SDS011;65793;42.678;23.332;2022-12-29T10:18:49;27.55;;;21.63;;
76833;SDS011;65793;42.678;23.332;2022-12-29T10:22:07;26.45;;;20.98;;
76833;SDS011;65793;42.678;23.332;2022-12-29T10:25:23;29.77;;;21.42;;
76833;SDS011;65793;42.678;23.332;2022-12-29T10:28:31;31.63;;;20.92;;
76833;SDS011;65793;42.678;23.332;2022-12-29T10:31:43;46.42;;;28.10;;
76833;SDS011;65793;42.678;23.332;2022-12-29T10:34:49;27.80;;;21.50;;
76833;SDS011;65793;42.678;23.332;2022-12-29T10:37:56;25.45;;;19.65;;
76833;SDS011;65793;42.678;23.332;2022-12-29T10:41:08;24.13;;;20.58;;
76833;SDS011;65793;42.678;23.332;2022-12-29T10:44:16;23.10;;;19.55;;
76833;SDS011;65793;42.678;23.332;2022-12-29T10:47:21;25.90;;;20.35;;
76833;SDS011;65793;42.678;23.332;2022-12-29T10:50:27;25.38;;;20.05;;
76833;SDS011;65793;42.678;23.332;2022-12-29T10:56:39;25.98;;;20.20;;
76833;SDS011;65793;42.678;23.332;2022-12-29T10:59:45;26.33;;;22.25;;
76833;SDS011;65793;42.678;23.332;2022-12-29T11:02:58;23.35;;;21.13;;
76833;SDS011;65793;42.678;23.332;2022-12-29T11:06:10;25.50;;;21.80;;
76833;SDS011;65793;42.678;23.332;2022-12-29T11:09:17;25.10;;;22.10;;
76833;SDS011;65793;42.678;23.332;2022-12-29T11:12:28;23.23;;;20.75;;
76833;SDS011;65793;42.678;23.332;2022-12-29T11:15:38;23.20;;;20.30;;
76833;SDS011;65793;42.678;23.332;2022-12-29T11:18:41;26.13;;;21.30;;
76833;SDS011;65793;42.678;23.332;2022-12-29T11:21:48;23.92;;;20.92;;
76833;SDS011;65793;42.678;23.332;2022-12-29T11:24:51;23.15;;;20.60;;
76833;SDS011;65793;42.678;23.332;2022-12-29T11:27:59;29.15;;;22.88;;
76833;SDS011;65793;42.678;23.332;2022-12-29T11:31:04;25.52;;;20.42;;
76833;SDS011;65793;42.678;23.332;2022-12-29T11:34:08;20.75;;;17.88;;
76833;SDS011;65793;42.678;23.332;2022-12-29T11:37:22;23.75;;;20.35;;
76833;SDS011;65793;42.678;23.332;2022-12-29T11:40:30;26.00;;;22.15;;
76833;SDS011;65793;42.678;23.332;2022-12-29T11:43:36;26.48;;;22.58;;
76833;SDS011;65793;42.678;23.332;2022-12-29T11:46:45;43.53;;;24.77;;
76833;SDS011;65793;42.678;23.332;2022-12-29T11:49:52;28.60;;;22.60;;
76833;SDS011;65793;42.678;23.332;2022-12-29T11:52:57;25.75;;;22.75;;
76833;SDS011;65793;42.678;23.332;2022-12-29T11:56:05;26.85;;;21.58;;
76833;SDS011;65793;42.678;23.332;2022-12-29T12:02:42;22.83;;;18.77;;
76833;SDS011;65793;42.678;23.332;2022-12-29T12:05:50;23.73;;;18.40;;
76833;SDS011;65793;42.678;23.332;2022-12-29T12:08:58;25.75;;;17.95;;
76833;SDS011;65793;42.678;23.332;2022-12-29T12:12:05;27.92;;;20.65;;
76833;SDS011;65793;42.678;23.332;2022-12-29T12:15:17;25.05;;;17.38;;
76833;SDS011;65793;42.678;23.332;2022-12-29T12:18:34;20.40;;;16.17;;
76833;SDS011;65793;42.678;23.332;2022-12-29T12:21:46;19.95;;;16.40;;
76833;SDS011;65793;42.678;23.332;2022-12-29T12:24:57;21.40;;;17.60;;
76833;SDS011;65793;42.678;23.332;2022-12-29T12:28:09;30.15;;;18.58;;
76833;SDS011;65793;42.678;23.332;2022-12-29T12:31:27;23.33;;;17.38;;
76833;SDS011;65793;42.678;23.332;2022-12-29T12:34:43;21.45;;;17.73;;
76833;SDS011;65793;42.678;23.332;2022-12-29T12:37:57;22.70;;;18.27;;
76833;SDS011;65793;42.678;23.332;2022-12-29T12:41:18;21.50;;;18.67;;
76833;SDS011;65793;42.678;23.332;2022-12-29T12:44:28;21.05;;;18.02;;
76833;SDS011;65793;42.678;23.332;2022-12-29T12:47:44;22.60;;;18.45;;
76833;SDS011;65793;42.678;23.332;2022-12-29T12:50:59;24.55;;;18.88;;
76833;SDS011;65793;42.678;23.332;2022-12-29T12:54:12;22.13;;;17.52;;
76833;SDS011;65793;42.678;23.332;2022-12-29T12:57:32;18.73;;;16.73;;
76833;SDS011;65793;42.678;23.332;2022-12-29T13:00:48;25.35;;;18.10;;
76833;SDS011;65793;42.678;23.332;2022-12-29T13:07:15;23.67;;;19.40;;
76833;SDS011;65793;42.678;23.332;2022-12-29T13:10:28;22.90;;;19.27;;
76833;SDS011;65793;42.678;23.332;2022-12-29T13:13:41;22.17;;;19.20;;
76833;SDS011;65793;42.678;23.332;2022-12-29T13:16:57;22.63;;;17.35;;
76833;SDS011;65793;42.678;23.332;2022-12-29T13:20:11;26.17;;;19.55;;
76833;SDS011;65793;42.678;23.332;2022-12-29T13:23:23;19.35;;;16.00;;
76833;SDS011;65793;42.678;23.332;2022-12-29T13:26:32;23.10;;;18.00;;
76833;SDS011;65793;42.678;23.332;2022-12-29T13:29:39;17.90;;;15.57;;
76833;SDS011;65793;42.678;23.332;2022-12-29T13:32:53;21.17;;;17.55;;
76833;SDS011;65793;42.678;23.332;2022-12-29T13:36:06;19.08;;;16.83;;
76833;SDS011;65793;42.678;23.332;2022-12-29T13:39:15;24.60;;;17.77;;
76833;SDS011;65793;42.678;23.332;2022-12-29T13:42:21;23.05;;;16.83;;
76833;SDS011;65793;42.678;23.332;2022-12-29T13:45:26;24.42;;;17.23;;
76833;SDS011;65793;42.678;23.332;2022-12-29T13:48:35;26.08;;;18.13;;
76833;SDS011;65793;42.678;23.332;2022-12-29T13:51:45;22.13;;;17.13;;
76833;SDS011;65793;42.678;23.332;2022-12-29T13:54:54;34.95;;;21.52;;
76833;SDS011;65793;42.678;23.332;2022-12-29T13:58:03;23.58;;;18.42;;
76833;SDS011;65793;42.678;23.332;2022-12-29T14:01:15;24.98;;;18.80;;
76833;SDS011;65793;42.678;23.332;2022-12-29T14:04:24;25.23;;;19.15;;
76833;SDS011;65793;42.678;23.332;2022-12-29T14:07:30;29.17;;;17.95;;
76833;SDS011;65793;42.678;23.332;2022-12-29T14:10:48;22.95;;;19.40;;
76833;SDS011;65793;42.678;23.332;2022-12-29T14:13:52;21.75;;;18.23;;
76833;SDS011;65793;42.678;23.332;2022-12-29T14:16:56;25.52;;;19.45;;
76833;SDS011;65793;42.678;23.332;2022-12-29T14:20:16;29.83;;;19.83;;
76833;SDS011;65793;42.678;23.332;2022-12-29T14:26:47;31.38;;;21.80;;
76833;SDS011;65793;42.678;23.332;2022-12-29T14:29:50;30.10;;;22.27;;
76833;SDS011;65793;42.678;23.332;2022-12-29T14:33:00;26.80;;;19.40;;
76833;SDS011;65793;42.678;23.332;2022-12-29T14:36:19;30.90;;;20.77;;
76833;SDS011;65793;42.678;23.332;2022-12-29T14:39:30;32.05;;;20.60;;
76833;SDS011;65793;42.678;23.332;2022-12-29T14:42:37;30.20;;;19.58;;
76833;SDS011;65793;42.678;23.332;2022-12-29T14:45:42;25.65;;;19.90;;
76833;SDS011;65793;42.678;23.332;2022-12-29T14:48:54;29.50;;;20.52;;
76833;SDS011;65793;42.678;23.332;2022-12-29T14:52:05;28.65;;;21.38;;
76833;SDS011;65793;42.678;23.332;2022-12-29T14:55:32;28.25;;;20.33;;
76833;SDS011;65793;42.678;23.332;2022-12-29T14:58:42;31.17;;;21.50;;
76833;SDS011;65793;42.678;23.332;2022-12-29T15:01:53;26.50;;;19.80;;
76833;SDS011;65793;42.678;23.332;2022-12-29T15:04:58;28.00;;;18.88;;
76833;SDS011;65793;42.678;23.332;2022-12-29T15:08:02;32.60;;;19.90;;
76833;SDS011;65793;42.678;23.332;2022-12-29T15:11:09;28.33;;;18.90;;
76833;SDS011;65793;42.678;23.332;2022-12-29T15:17:52;39.15;;;24.77;;
76833;SDS011;65793;42.678;23.332;2022-12-29T15:20:55;40.17;;;24.13;;
76833;SDS011;65793;42.678;23.332;2022-12-29T15:23:59;34.50;;;23.70;;
76833;SDS011;65793;42.678;23.332;2022-12-29T15:27:04;33.28;;;22.88;;
76833;SDS011;65793;42.678;23.332;2022-12-29T15:30:12;36.33;;;23.23;;
76833;SDS011;65793;42.678;23.332;2022-12-29T15:33:17;33.80;;;22.35;;
76833;SDS011;65793;42.678;23.332;2022-12-29T15:36:21;33.53;;;23.95;;
76833;SDS011;65793;42.678;23.332;2022-12-29T15:39:27;48.35;;;27.65;;
76833;SDS011;65793;42.678;23.332;2022-12-29T15:42:39;39.50;;;25.25;;
76833;SDS011;65793;42.678;23.332;2022-12-29T15:45:54;37.10;;;25.40;;
76833;SDS011;65793;42.678;23.332;2022-12-29T15:48:59;36.70;;;24.13;;
76833;SDS011;65793;42.678;23.332;2022-12-29T15:52:05;45.00;;;26.67;;
76833;SDS011;65793;42.678;23.332;2022-12-29T15:55:16;40.95;;;26.77;;
76833;SDS011;65793;42.678;23.332;2022-12-29T15:58:25;45.20;;;28.23;;
76833;SDS011;65793;42.678;23.332;2022-12-29T16:01:30;49.03;;;31.25;;
76833;SDS011;65793;42.678;23.332;2022-12-29T16:04:35;50.15;;;34.22;;
76833;SDS011;65793;42.678;23.332;2022-12-29T16:07:38;47.33;;;31.47;;
76833;SDS011;65793;42.678;23.332;2022-12-29T16:10:53;45.13;;;32.10;;
76833;SDS011;65793;42.678;23.332;2022-12-29T16:13:59;53.72;;;31.88;;
76833;SDS011;65793;42.678;23.332;2022-12-29T16:17:03;49.90;;;31.05;;
76833;SDS011;65793;42.678;23.332;2022-12-29T16:20:14;45.42;;;31.33;;
76833;SDS011;65793;42.678;23.332;2022-12-29T16:23:21;58.83;;;36.47;;
76833;SDS011;65793;42.678;23.332;2022-12-29T16:26:26;68.47;;;39.70;;
76833;SDS011;65793;42.678;23.332;2022-12-29T16:29:30;63.90;;;38.20;;
76833;SDS011;65793;42.678;23.332;2022-12-29T16:32:33;54.85;;;36.30;;
76833;SDS011;65793;42.678;23.332;2022-12-29T16:35:38;63.88;;;38.08;;
76833;SDS011;65793;42.678;23.332;2022-12-29T16:38:47;58.67;;;35.83;;
76833;SDS011;65793;42.678;23.332;2022-12-29T16:41:49;68.30;;;34.42;;
76833;SDS011;65793;42.678;23.332;2022-12-29T16:44:54;51.78;;;34.88;;
76833;SDS011;65793;42.678;23.332;2022-12-29T16:48:46;52.17;;;32.90;;
76833;SDS011;65793;42.678;23.332;2022-12-29T16:51:51;56.08;;;33.45;;
76833;SDS011;65793;42.678;23.332;2022-12-29T16:57:57;54.95;;;32.75;;
76833;SDS011;65793;42.678;23.332;2022-12-29T17:01:04;60.15;;;35.85;;
76833;SDS011;65793;42.678;23.332;2022-12-29T17:04:19;59.15;;;34.83;;
76833;SDS011;65793;42.678;23.332;2022-12-29T17:07:22;58.28;;;34.45;;
76833;SDS011;65793;42.678;23.332;2022-12-29T17:13:48;51.88;;;34.83;;
76833;SDS011;65793;42.678;23.332;2022-12-29T17:16:52;67.45;;;37.90;;
76833;SDS011;65793;42.678;23.332;2022-12-29T17:19:55;63.95;;;37.08;;
76833;SDS011;65793;42.678;23.332;2022-12-29T17:23:05;67.28;;;36.22;;
76833;SDS011;65793;42.678;23.332;2022-12-29T17:26:15;55.65;;;32.80;;
76833;SDS011;65793;42.678;23.332;2022-12-29T17:29:19;57.25;;;34.45;;
76833;SDS011;65793;42.678;23.332;2022-12-29T17:32:27;57.30;;;35.55;;
76833;SDS011;65793;42.678;23.332;2022-12-29T17:38:48;55.80;;;35.80;;
76833;SDS011;65793;42.678;23.332;2022-12-29T17:41:58;53.75;;;36.03;;
76833;SDS011;65793;42.678;23.332;2022-12-29T17:45:23;62.50;;;35.15;;
76833;SDS011;65793;42.678;23.332;2022-12-29T17:48:30;46.78;;;30.63;;
76833;SDS011;65793;42.678;23.332;2022-12-29T17:51:41;56.00;;;33.88;;
76833;SDS011;65793;42.678;23.332;2022-12-29T17:54:51;51.67;;;32.72;;
76833;SDS011;65793;42.678;23.332;2022-12-29T17:57:59;54.03;;;35.83;;
76833;SDS011;65793;42.678;23.332;2022-12-29T18:01:21;51.53;;;35.85;;
76833;SDS011;65793;42.678;23.332;2022-12-29T18:04:34;51.13;;;33.03;;
76833;SDS011;65793;42.678;23.332;2022-12-29T18:07:36;54.45;;;34.20;;
76833;SDS011;65793;42.678;23.332;2022-12-29T18:10:43;61.08;;;37.53;;
76833;SDS011;65793;42.678;23.332;2022-12-29T18:13:59;69.18;;;37.47;;
76833;SDS011;65793;42.678;23.332;2022-12-29T18:17:10;58.50;;;35.15;;
76833;SDS011;65793;42.678;23.332;2022-12-29T18:20:20;49.20;;;33.92;;
76833;SDS011;65793;42.678;23.332;2022-12-29T18:23:27;51.88;;;33.28;;
76833;SDS011;65793;42.678;23.332;2022-12-29T18:26:35;47.50;;;32.53;;
76833;SDS011;65793;42.678;23.332;2022-12-29T18:29:44;54.97;;;35.42;;
76833;SDS011;65793;42.678;23.332;2022-12-29T18:35:53;67.25;;;37.17;;
76833;SDS011;65793;42.678;23.332;2022-12-29T18:39:01;55.85;;;35.47;;
76833;SDS011;65793;42.678;23.332;2022-12-29T18:42:04;62.60;;;35.10;;
76833;SDS011;65793;42.678;23.332;2022-12-29T18:45:17;57.33;;;33.30;;
76833;SDS011;65793;42.678;23.332;2022-12-29T18:48:25;47.90;;;32.38;;
76833;SDS011;65793;42.678;23.332;2022-12-29T18:51:32;55.83;;;33.47;;
76833;SDS011;65793;42.678;23.332;2022-12-29T18:54:34;55.08;;;33.53;;
76833;SDS011;65793;42.678;23.332;2022-12-29T18:57:37;46.40;;;34.22;;
76833;SDS011;65793;42.678;23.332;2022-12-29T19:00:40;44.90;;;29.73;;
76833;SDS011;65793;42.678;23.332;2022-12-29T19:03:42;44.72;;;28.92;;